sensor_id;sensor_type;location;lat;lon;timestamp;P1;durP1;ratioP1;P2;durP2;ratioP2
37485;SDS011;23341;50.296;18.960;2023-02-21T00:05:34;7.30;;;5.07;;
37485;SDS011;23341;50.296;18.960;2023-02-21T00:10:55;6.07;;;3.40;;
37485;SDS011;23341;50.296;18.960;2023-02-21T00:16:17;4.15;;;3.25;;
37485;SDS011;23341;50.296;18.960;2023-02-21T00:21:40;3.13;;;2.25;;
37485;SDS011;23341;50.296;18.960;2023-02-21T00:27:03;2.38;;;2.15;;
37485;SDS011;23341;50.296;18.960;2023-02-21T00:32:24;4.57;;;2.35;;
37485;SDS011;23341;50.296;18.960;2023-02-21T00:37:49;2.92;;;2.33;;
37485;SDS011;23341;50.296;18.960;2023-02-21T00:43:11;2.67;;;2.28;;
37485;SDS011;23341;50.296;18.960;2023-02-21T00:48:33;4.28;;;3.88;;
37485;SDS011;23341;50.296;18.960;2023-02-21T00:53:56;11.50;;;4.82;;
37485;SDS011;23341;50.296;18.960;2023-02-21T00:59:18;6.53;;;3.85;;
37485;SDS011;23341;50.296;18.960;2023-02-21T01:04:39;11.70;;;5.28;;
37485;SDS011;23341;50.296;18.960;2023-02-21T01:10:03;8.25;;;5.53;;
37485;SDS011;23341;50.296;18.960;2023-02-21T01:15:24;7.20;;;4.35;;
37485;SDS011;23341;50.296;18.960;2023-02-21T01:20:47;7.50;;;3.65;;
37485;SDS011;23341;50.296;18.960;2023-02-21T01:26:10;3.92;;;3.25;;
37485;SDS011;23341;50.296;18.960;2023-02-21T01:31:32;8.75;;;6.40;;
37485;SDS011;23341;50.296;18.960;2023-02-21T01:36:55;3.47;;;3.17;;
37485;SDS011;23341;50.296;18.960;2023-02-21T01:42:18;5.07;;;3.13;;
37485;SDS011;23341;50.296;18.960;2023-02-21T01:47:39;3.60;;;2.30;;
37485;SDS011;23341;50.296;18.960;2023-02-21T01:53:02;3.30;;;3.00;;
37485;SDS011;23341;50.296;18.960;2023-02-21T01:58:29;3.22;;;2.65;;
37485;SDS011;23341;50.296;18.960;2023-02-21T02:03:52;6.70;;;3.95;;
37485;SDS011;23341;50.296;18.960;2023-02-21T02:09:15;4.65;;;4.13;;
37485;SDS011;23341;50.296;18.960;2023-02-21T02:14:47;6.20;;;4.30;;
37485;SDS011;23341;50.296;18.960;2023-02-21T02:31:40;8.82;;;5.63;;
37485;SDS011;23341;50.296;18.960;2023-02-21T02:36:57;6.75;;;6.05;;
37485;SDS011;23341;50.296;18.960;2023-02-21T02:42:14;9.38;;;7.85;;
37485;SDS011;23341;50.296;18.960;2023-02-21T02:47:27;11.05;;;8.48;;
37485;SDS011;23341;50.296;18.960;2023-02-21T02:52:42;10.55;;;7.50;;
37485;SDS011;23341;50.296;18.960;2023-02-21T02:57:55;8.02;;;7.13;;
37485;SDS011;23341;50.296;18.960;2023-02-21T03:03:06;9.63;;;7.57;;
37485;SDS011;23341;50.296;18.960;2023-02-21T03:08:26;10.57;;;7.72;;
37485;SDS011;23341;50.296;18.960;2023-02-21T03:13:37;13.15;;;10.30;;
37485;SDS011;23341;50.296;18.960;2023-02-21T03:18:47;28.00;;;13.88;;
37485;SDS011;23341;50.296;18.960;2023-02-21T03:23:56;12.65;;;9.13;;
37485;SDS011;23341;50.296;18.960;2023-02-21T03:29:04;10.38;;;8.70;;
37485;SDS011;23341;50.296;18.960;2023-02-21T03:34:09;8.48;;;7.72;;
37485;SDS011;23341;50.296;18.960;2023-02-21T03:39:15;8.85;;;7.15;;
37485;SDS011;23341;50.296;18.960;2023-02-21T03:44:20;13.32;;;9.48;;
37485;SDS011;23341;50.296;18.960;2023-02-21T03:49:25;7.63;;;7.00;;
37485;SDS011;23341;50.296;18.960;2023-02-21T03:54:31;7.45;;;6.72;;
37485;SDS011;23341;50.296;18.960;2023-02-21T03:59:36;13.75;;;12.35;;
37485;SDS011;23341;50.296;18.960;2023-02-21T04:04:40;15.90;;;14.40;;
37485;SDS011;23341;50.296;18.960;2023-02-21T04:09:49;18.92;;;16.70;;
37485;SDS011;23341;50.296;18.960;2023-02-21T04:15:01;19.73;;;15.88;;
37485;SDS011;23341;50.296;18.960;2023-02-21T04:20:06;18.17;;;13.52;;
37485;SDS011;23341;50.296;18.960;2023-02-21T04:25:18;19.58;;;17.55;;
37485;SDS011;23341;50.296;18.960;2023-02-21T04:30:31;17.65;;;14.95;;
37485;SDS011;23341;50.296;18.960;2023-02-21T04:35:36;20.30;;;14.80;;
37485;SDS011;23341;50.296;18.960;2023-02-21T04:40:49;16.67;;;13.20;;
37485;SDS011;23341;50.296;18.960;2023-02-21T04:45:55;18.45;;;12.90;;
37485;SDS011;23341;50.296;18.960;2023-02-21T04:50:59;13.85;;;10.63;;
37485;SDS011;23341;50.296;18.960;2023-02-21T04:56:18;18.23;;;14.15;;
37485;SDS011;23341;50.296;18.960;2023-02-21T05:01:25;14.75;;;13.30;;
37485;SDS011;23341;50.296;18.960;2023-02-21T05:06:30;12.82;;;10.45;;
37485;SDS011;23341;50.296;18.960;2023-02-21T05:11:37;14.77;;;12.80;;
37485;SDS011;23341;50.296;18.960;2023-02-21T05:16:41;13.98;;;12.57;;
37485;SDS011;23341;50.296;18.960;2023-02-21T05:21:46;18.73;;;13.57;;
37485;SDS011;23341;50.296;18.960;2023-02-21T05:26:53;14.60;;;12.40;;
37485;SDS011;23341;50.296;18.960;2023-02-21T05:31:58;13.85;;;11.70;;
37485;SDS011;23341;50.296;18.960;2023-02-21T05:37:02;12.70;;;11.27;;
37485;SDS011;23341;50.296;18.960;2023-02-21T05:42:08;14.00;;;11.07;;
37485;SDS011;23341;50.296;18.960;2023-02-21T05:47:12;14.48;;;12.02;;
37485;SDS011;23341;50.296;18.960;2023-02-21T05:52:17;13.40;;;11.32;;
37485;SDS011;23341;50.296;18.960;2023-02-21T05:57:22;15.98;;;11.18;;
37485;SDS011;23341;50.296;18.960;2023-02-21T06:02:27;14.95;;;10.50;;
37485;SDS011;23341;50.296;18.960;2023-02-21T06:07:31;12.20;;;10.90;;
37485;SDS011;23341;50.296;18.960;2023-02-21T06:12:37;12.32;;;9.45;;
37485;SDS011;23341;50.296;18.960;2023-02-21T06:17:42;12.65;;;10.52;;
37485;SDS011;23341;50.296;18.960;2023-02-21T06:22:47;9.98;;;8.82;;
37485;SDS011;23341;50.296;18.960;2023-02-21T06:27:53;12.95;;;11.65;;
37485;SDS011;23341;50.296;18.960;2023-02-21T06:32:57;12.02;;;10.38;;
37485;SDS011;23341;50.296;18.960;2023-02-21T06:38:02;11.07;;;9.45;;
37485;SDS011;23341;50.296;18.960;2023-02-21T06:43:08;16.10;;;12.38;;
37485;SDS011;23341;50.296;18.960;2023-02-21T06:48:13;17.85;;;12.07;;
37485;SDS011;23341;50.296;18.960;2023-02-21T06:53:17;14.88;;;12.18;;
37485;SDS011;23341;50.296;18.960;2023-02-21T06:58:23;16.90;;;12.50;;
37485;SDS011;23341;50.296;18.960;2023-02-21T07:03:27;14.52;;;12.90;;
37485;SDS011;23341;50.296;18.960;2023-02-21T07:08:32;18.27;;;14.05;;
37485;SDS011;23341;50.296;18.960;2023-02-21T07:13:37;18.20;;;16.30;;
37485;SDS011;23341;50.296;18.960;2023-02-21T07:18:42;17.80;;;13.60;;
37485;SDS011;23341;50.296;18.960;2023-02-21T07:23:46;16.88;;;15.25;;
37485;SDS011;23341;50.296;18.960;2023-02-21T07:28:53;21.60;;;15.48;;
37485;SDS011;23341;50.296;18.960;2023-02-21T07:33:57;21.17;;;15.77;;
37485;SDS011;23341;50.296;18.960;2023-02-21T07:39:02;23.67;;;15.50;;
37485;SDS011;23341;50.296;18.960;2023-02-21T07:44:08;14.10;;;12.00;;
37485;SDS011;23341;50.296;18.960;2023-02-21T07:49:13;15.38;;;10.40;;
37485;SDS011;23341;50.296;18.960;2023-02-21T07:54:17;16.85;;;11.25;;
37485;SDS011;23341;50.296;18.960;2023-02-21T07:59:23;16.23;;;11.30;;
37485;SDS011;23341;50.296;18.960;2023-02-21T08:04:27;19.98;;;14.15;;
37485;SDS011;23341;50.296;18.960;2023-02-21T08:09:31;15.52;;;10.55;;
37485;SDS011;23341;50.296;18.960;2023-02-21T08:14:38;15.07;;;8.13;;
37485;SDS011;23341;50.296;18.960;2023-02-21T08:19:42;12.43;;;9.57;;
37485;SDS011;23341;50.296;18.960;2023-02-21T08:24:48;11.02;;;8.73;;
37485;SDS011;23341;50.296;18.960;2023-02-21T08:29:53;13.38;;;8.32;;
37485;SDS011;23341;50.296;18.960;2023-02-21T08:34:58;7.85;;;6.68;;
37485;SDS011;23341;50.296;18.960;2023-02-21T08:40:03;10.93;;;8.88;;
37485;SDS011;23341;50.296;18.960;2023-02-21T08:45:13;6.65;;;5.80;;
37485;SDS011;23341;50.296;18.960;2023-02-21T08:50:21;8.48;;;7.45;;
37485;SDS011;23341;50.296;18.960;2023-02-21T08:55:27;8.80;;;7.22;;
37485;SDS011;23341;50.296;18.960;2023-02-21T09:00:32;12.48;;;7.65;;
37485;SDS011;23341;50.296;18.960;2023-02-21T09:05:37;8.13;;;7.40;;
37485;SDS011;23341;50.296;18.960;2023-02-21T09:10:41;10.95;;;8.82;;
37485;SDS011;23341;50.296;18.960;2023-02-21T09:15:50;9.15;;;5.97;;
37485;SDS011;23341;50.296;18.960;2023-02-21T09:20:55;6.18;;;4.78;;
37485;SDS011;23341;50.296;18.960;2023-02-21T09:26:00;7.65;;;6.80;;
37485;SDS011;23341;50.296;18.960;2023-02-21T09:31:06;8.57;;;6.53;;
37485;SDS011;23341;50.296;18.960;2023-02-21T09:36:10;8.82;;;7.57;;
37485;SDS011;23341;50.296;18.960;2023-02-21T09:41:15;10.55;;;9.45;;
37485;SDS011;23341;50.296;18.960;2023-02-21T09:46:24;12.20;;;7.25;;
37485;SDS011;23341;50.296;18.960;2023-02-21T09:51:36;8.88;;;7.50;;
37485;SDS011;23341;50.296;18.960;2023-02-21T09:56:43;10.55;;;8.00;;
37485;SDS011;23341;50.296;18.960;2023-02-21T10:01:52;13.82;;;10.38;;
37485;SDS011;23341;50.296;18.960;2023-02-21T10:07:07;11.00;;;9.18;;
37485;SDS011;23341;50.296;18.960;2023-02-21T10:12:18;18.35;;;13.63;;
37485;SDS011;23341;50.296;18.960;2023-02-21T10:17:33;33.10;;;16.02;;
37485;SDS011;23341;50.296;18.960;2023-02-21T10:22:43;105.28;;;34.55;;
37485;SDS011;23341;50.296;18.960;2023-02-21T10:27:49;89.82;;;31.98;;
37485;SDS011;23341;50.296;18.960;2023-02-21T10:32:57;140.88;;;46.30;;
37485;SDS011;23341;50.296;18.960;2023-02-21T10:38:02;90.57;;;34.42;;
37485;SDS011;23341;50.296;18.960;2023-02-21T10:43:10;29.13;;;12.43;;
37485;SDS011;23341;50.296;18.960;2023-02-21T10:53:28;53.60;;;24.52;;
37485;SDS011;23341;50.296;18.960;2023-02-21T10:58:34;28.80;;;16.30;;
37485;SDS011;23341;50.296;18.960;2023-02-21T11:03:43;44.67;;;21.63;;
37485;SDS011;23341;50.296;18.960;2023-02-21T11:08:49;18.85;;;11.05;;
37485;SDS011;23341;50.296;18.960;2023-02-21T11:14:02;25.98;;;13.68;;
37485;SDS011;23341;50.296;18.960;2023-02-21T11:19:24;20.85;;;12.70;;
37485;SDS011;23341;50.296;18.960;2023-02-21T11:24:28;16.08;;;9.23;;
37485;SDS011;23341;50.296;18.960;2023-02-21T11:29:34;14.80;;;10.18;;
37485;SDS011;23341;50.296;18.960;2023-02-21T11:34:40;19.95;;;10.30;;
37485;SDS011;23341;50.296;18.960;2023-02-21T11:39:50;8.77;;;5.45;;
37485;SDS011;23341;50.296;18.960;2023-02-21T11:45:08;9.00;;;6.70;;
37485;SDS011;23341;50.296;18.960;2023-02-21T11:50:20;11.95;;;8.43;;
37485;SDS011;23341;50.296;18.960;2023-02-21T11:55:27;8.30;;;6.05;;
37485;SDS011;23341;50.296;18.960;2023-02-21T12:00:36;11.63;;;7.85;;
37485;SDS011;23341;50.296;18.960;2023-02-21T12:05:51;13.65;;;8.80;;
37485;SDS011;23341;50.296;18.960;2023-02-21T12:11:04;16.27;;;9.27;;
37485;SDS011;23341;50.296;18.960;2023-02-21T12:16:19;69.00;;;35.00;;
37485;SDS011;23341;50.296;18.960;2023-02-21T12:21:40;40.75;;;21.50;;
37485;SDS011;23341;50.296;18.960;2023-02-21T12:27:01;22.23;;;12.95;;
37485;SDS011;23341;50.296;18.960;2023-02-21T12:32:17;35.10;;;19.70;;
37485;SDS011;23341;50.296;18.960;2023-02-21T12:37:39;6.82;;;5.70;;
37485;SDS011;23341;50.296;18.960;2023-02-21T12:43:01;12.35;;;7.00;;
37485;SDS011;23341;50.296;18.960;2023-02-21T12:48:26;20.63;;;9.80;;
37485;SDS011;23341;50.296;18.960;2023-02-21T12:53:38;15.07;;;7.53;;
37485;SDS011;23341;50.296;18.960;2023-02-21T12:58:48;15.85;;;8.05;;
37485;SDS011;23341;50.296;18.960;2023-02-21T13:04:00;10.90;;;6.77;;
37485;SDS011;23341;50.296;18.960;2023-02-21T13:09:16;20.92;;;11.07;;
37485;SDS011;23341;50.296;18.960;2023-02-21T13:14:32;6.25;;;4.90;;
37485;SDS011;23341;50.296;18.960;2023-02-21T13:19:42;11.15;;;5.25;;
37485;SDS011;23341;50.296;18.960;2023-02-21T13:24:53;9.52;;;6.80;;
37485;SDS011;23341;50.296;18.960;2023-02-21T13:30:03;10.18;;;6.78;;
37485;SDS011;23341;50.296;18.960;2023-02-21T13:35:18;8.95;;;7.00;;
37485;SDS011;23341;50.296;18.960;2023-02-21T13:40:31;7.82;;;6.68;;
37485;SDS011;23341;50.296;18.960;2023-02-21T13:45:40;8.70;;;7.40;;
37485;SDS011;23341;50.296;18.960;2023-02-21T13:50:45;14.82;;;11.63;;
37485;SDS011;23341;50.296;18.960;2023-02-21T13:56:15;16.30;;;10.93;;
37485;SDS011;23341;50.296;18.960;2023-02-21T14:01:21;50.27;;;24.33;;
37485;SDS011;23341;50.296;18.960;2023-02-21T14:12:00;33.08;;;14.52;;
37485;SDS011;23341;50.296;18.960;2023-02-21T14:17:07;23.50;;;12.68;;
37485;SDS011;23341;50.296;18.960;2023-02-21T14:22:14;14.30;;;10.93;;
37485;SDS011;23341;50.296;18.960;2023-02-21T14:27:34;25.33;;;14.40;;
37485;SDS011;23341;50.296;18.960;2023-02-21T14:32:41;26.10;;;13.15;;
37485;SDS011;23341;50.296;18.960;2023-02-21T14:37:51;22.05;;;13.63;;
37485;SDS011;23341;50.296;18.960;2023-02-21T14:43:08;17.00;;;11.93;;
37485;SDS011;23341;50.296;18.960;2023-02-21T14:48:37;21.10;;;13.80;;
37485;SDS011;23341;50.296;18.960;2023-02-21T14:59:47;17.23;;;11.43;;
37485;SDS011;23341;50.296;18.960;2023-02-21T15:05:11;10.65;;;7.90;;
37485;SDS011;23341;50.296;18.960;2023-02-21T15:10:23;16.20;;;10.65;;
37485;SDS011;23341;50.296;18.960;2023-02-21T15:15:31;26.73;;;17.45;;
37485;SDS011;23341;50.296;18.960;2023-02-21T15:20:37;20.30;;;10.98;;
37485;SDS011;23341;50.296;18.960;2023-02-21T15:25:44;16.42;;;13.57;;
37485;SDS011;23341;50.296;18.960;2023-02-21T15:30:59;19.00;;;12.05;;
37485;SDS011;23341;50.296;18.960;2023-02-21T15:36:06;16.58;;;10.90;;
37485;SDS011;23341;50.296;18.960;2023-02-21T15:41:22;26.77;;;23.35;;
37485;SDS011;23341;50.296;18.960;2023-02-21T15:46:36;13.68;;;9.10;;
37485;SDS011;23341;50.296;18.960;2023-02-21T15:51:46;14.13;;;10.23;;
37485;SDS011;23341;50.296;18.960;2023-02-21T15:57:15;25.52;;;14.65;;
37485;SDS011;23341;50.296;18.960;2023-02-21T16:02:27;23.70;;;15.32;;
37485;SDS011;23341;50.296;18.960;2023-02-21T16:07:34;15.10;;;11.90;;
37485;SDS011;23341;50.296;18.960;2023-02-21T16:12:43;19.00;;;12.10;;
37485;SDS011;23341;50.296;18.960;2023-02-21T16:17:52;25.38;;;15.85;;
37485;SDS011;23341;50.296;18.960;2023-02-21T16:28:22;39.30;;;22.48;;
37485;SDS011;23341;50.296;18.960;2023-02-21T16:33:28;34.38;;;20.73;;
37485;SDS011;23341;50.296;18.960;2023-02-21T16:38:33;40.30;;;20.58;;
37485;SDS011;23341;50.296;18.960;2023-02-21T16:43:37;32.30;;;20.00;;
37485;SDS011;23341;50.296;18.960;2023-02-21T16:48:43;52.13;;;27.67;;
37485;SDS011;23341;50.296;18.960;2023-02-21T16:53:47;29.65;;;18.40;;
37485;SDS011;23341;50.296;18.960;2023-02-21T16:58:53;21.63;;;14.52;;
37485;SDS011;23341;50.296;18.960;2023-02-21T17:04:01;17.85;;;12.13;;
37485;SDS011;23341;50.296;18.960;2023-02-21T17:09:08;26.60;;;14.98;;
37485;SDS011;23341;50.296;18.960;2023-02-21T17:14:21;22.95;;;14.75;;
37485;SDS011;23341;50.296;18.960;2023-02-21T17:19:26;35.45;;;20.52;;
37485;SDS011;23341;50.296;18.960;2023-02-21T17:24:31;17.30;;;12.25;;
37485;SDS011;23341;50.296;18.960;2023-02-21T17:29:35;19.80;;;13.20;;
37485;SDS011;23341;50.296;18.960;2023-02-21T17:34:41;18.98;;;11.93;;
37485;SDS011;23341;50.296;18.960;2023-02-21T17:39:50;22.60;;;14.38;;
37485;SDS011;23341;50.296;18.960;2023-02-21T17:44:56;25.85;;;16.92;;
37485;SDS011;23341;50.296;18.960;2023-02-21T17:50:05;27.92;;;15.35;;
37485;SDS011;23341;50.296;18.960;2023-02-21T17:55:11;28.17;;;17.63;;
37485;SDS011;23341;50.296;18.960;2023-02-21T18:00:22;35.35;;;20.33;;
37485;SDS011;23341;50.296;18.960;2023-02-21T18:05:29;37.92;;;22.02;;
37485;SDS011;23341;50.296;18.960;2023-02-21T18:10:33;40.75;;;23.77;;
37485;SDS011;23341;50.296;18.960;2023-02-21T18:15:38;41.78;;;26.83;;
37485;SDS011;23341;50.296;18.960;2023-02-21T18:20:44;39.03;;;24.58;;
37485;SDS011;23341;50.296;18.960;2023-02-21T18:25:49;45.15;;;25.08;;
37485;SDS011;23341;50.296;18.960;2023-02-21T18:30:53;28.05;;;14.45;;
37485;SDS011;23341;50.296;18.960;2023-02-21T18:35:59;19.55;;;8.68;;
37485;SDS011;23341;50.296;18.960;2023-02-21T18:41:07;17.75;;;10.13;;
37485;SDS011;23341;50.296;18.960;2023-02-21T18:46:13;27.17;;;10.90;;
37485;SDS011;23341;50.296;18.960;2023-02-21T18:51:21;45.50;;;15.93;;
37485;SDS011;23341;50.296;18.960;2023-02-21T18:56:25;43.80;;;16.27;;
37485;SDS011;23341;50.296;18.960;2023-02-21T19:01:31;40.75;;;19.13;;
37485;SDS011;23341;50.296;18.960;2023-02-21T19:06:37;51.10;;;21.75;;
37485;SDS011;23341;50.296;18.960;2023-02-21T19:11:43;33.83;;;13.43;;
37485;SDS011;23341;50.296;18.960;2023-02-21T19:16:48;42.97;;;19.50;;
37485;SDS011;23341;50.296;18.960;2023-02-21T19:21:54;26.05;;;13.32;;
37485;SDS011;23341;50.296;18.960;2023-02-21T19:26:58;26.17;;;14.80;;
37485;SDS011;23341;50.296;18.960;2023-02-21T19:32:03;45.70;;;22.42;;
37485;SDS011;23341;50.296;18.960;2023-02-21T19:37:09;28.55;;;11.25;;
37485;SDS011;23341;50.296;18.960;2023-02-21T19:42:14;27.85;;;13.30;;
37485;SDS011;23341;50.296;18.960;2023-02-21T19:47:18;86.88;;;57.35;;
37485;SDS011;23341;50.296;18.960;2023-02-21T19:52:24;39.63;;;20.58;;
37485;SDS011;23341;50.296;18.960;2023-02-21T19:57:30;40.20;;;19.05;;
37485;SDS011;23341;50.296;18.960;2023-02-21T20:02:34;33.17;;;16.00;;
37485;SDS011;23341;50.296;18.960;2023-02-21T20:07:40;38.65;;;18.05;;
37485;SDS011;23341;50.296;18.960;2023-02-21T20:12:45;32.88;;;14.88;;
37485;SDS011;23341;50.296;18.960;2023-02-21T20:17:49;56.63;;;23.70;;
37485;SDS011;23341;50.296;18.960;2023-02-21T20:22:56;47.17;;;20.70;;
37485;SDS011;23341;50.296;18.960;2023-02-21T20:28:03;51.47;;;23.73;;
37485;SDS011;23341;50.296;18.960;2023-02-21T20:33:08;61.38;;;29.55;;
37485;SDS011;23341;50.296;18.960;2023-02-21T20:38:14;79.97;;;34.30;;
37485;SDS011;23341;50.296;18.960;2023-02-21T20:43:18;89.18;;;42.13;;
37485;SDS011;23341;50.296;18.960;2023-02-21T20:48:23;84.05;;;35.10;;
37485;SDS011;23341;50.296;18.960;2023-02-21T20:53:29;145.13;;;53.75;;
37485;SDS011;23341;50.296;18.960;2023-02-21T20:58:33;202.77;;;70.47;;
37485;SDS011;23341;50.296;18.960;2023-02-21T21:03:38;219.77;;;72.93;;
37485;SDS011;23341;50.296;18.960;2023-02-21T21:08:44;147.85;;;50.35;;
37485;SDS011;23341;50.296;18.960;2023-02-21T21:13:49;217.27;;;70.93;;
37485;SDS011;23341;50.296;18.960;2023-02-21T21:18:53;109.78;;;43.58;;
37485;SDS011;23341;50.296;18.960;2023-02-21T21:24:00;93.53;;;38.47;;
37485;SDS011;23341;50.296;18.960;2023-02-21T21:29:09;66.18;;;29.55;;
37485;SDS011;23341;50.296;18.960;2023-02-21T21:34:13;56.63;;;23.95;;
37485;SDS011;23341;50.296;18.960;2023-02-21T21:39:19;88.38;;;34.03;;
37485;SDS011;23341;50.296;18.960;2023-02-21T21:44:25;78.93;;;31.35;;
37485;SDS011;23341;50.296;18.960;2023-02-21T21:49:32;83.65;;;36.95;;
37485;SDS011;23341;50.296;18.960;2023-02-21T21:54:38;173.10;;;86.40;;
37485;SDS011;23341;50.296;18.960;2023-02-21T21:59:47;86.72;;;37.42;;
37485;SDS011;23341;50.296;18.960;2023-02-21T22:04:52;89.85;;;37.03;;
37485;SDS011;23341;50.296;18.960;2023-02-21T22:09:58;77.32;;;29.65;;
37485;SDS011;23341;50.296;18.960;2023-02-21T22:15:02;147.75;;;48.55;;
37485;SDS011;23341;50.296;18.960;2023-02-21T22:20:07;190.10;;;55.97;;
37485;SDS011;23341;50.296;18.960;2023-02-21T22:25:20;207.38;;;63.83;;
37485;SDS011;23341;50.296;18.960;2023-02-21T22:30:25;104.20;;;35.28;;
37485;SDS011;23341;50.296;18.960;2023-02-21T22:35:29;104.53;;;40.30;;
37485;SDS011;23341;50.296;18.960;2023-02-21T22:40:35;153.52;;;55.50;;
37485;SDS011;23341;50.296;18.960;2023-02-21T22:45:39;89.40;;;33.63;;
37485;SDS011;23341;50.296;18.960;2023-02-21T22:50:49;150.35;;;56.42;;
37485;SDS011;23341;50.296;18.960;2023-02-21T22:55:55;278.70;;;106.07;;
37485;SDS011;23341;50.296;18.960;2023-02-21T23:01:00;132.10;;;48.00;;
37485;SDS011;23341;50.296;18.960;2023-02-21T23:06:09;100.85;;;33.72;;
37485;SDS011;23341;50.296;18.960;2023-02-21T23:11:18;171.55;;;49.00;;
37485;SDS011;23341;50.296;18.960;2023-02-21T23:16:25;136.57;;;43.42;;
37485;SDS011;23341;50.296;18.960;2023-02-21T23:21:29;126.60;;;35.05;;
37485;SDS011;23341;50.296;18.960;2023-02-21T23:26:35;96.28;;;31.73;;
37485;SDS011;23341;50.296;18.960;2023-02-21T23:31:45;290.95;;;97.93;;
37485;SDS011;23341;50.296;18.960;2023-02-21T23:36:51;149.45;;;50.17;;
37485;SDS011;23341;50.296;18.960;2023-02-21T23:41:58;57.85;;;23.10;;
37485;SDS011;23341;50.296;18.960;2023-02-21T23:47:02;51.28;;;19.60;;
37485;SDS011;23341;50.296;18.960;2023-02-21T23:52:07;59.97;;;20.63;;
37485;SDS011;23341;50.296;18.960;2023-02-21T23:57:13;51.20;;;17.67;;
